Time;durP1;ratioP1;P1;durP2;ratioP2;P2;SDS_P1;SDS_P2;PMS_P1;PMS_P2;Temp;Humidity;BMP_temperature;BMP_pressure;BME280_temperature;BME280_humidity;BME280_pressure;Samples;Min_cycle;Max_cycle;Signal;HPM_P1;HPM_P2
2022/04/08 00:01:44;;;;;;;18.88;8.18;;;;;;;10.31;99.99;95480.91;5003382;28;20432;-57
2022/04/08 00:04:11;;;;;;;17.40;7.40;;;;;;;10.23;100.00;95457.25;5003673;28;20144;-59
2022/04/08 00:06:38;;;;;;;25.20;9.48;;;;;;;8.23;100.00;95179.41;5003430;28;20057;-57
2022/04/08 00:09:04;;;;;;;67.53;14.80;;;;;;;10.16;100.00;95485.75;5006110;28;20061;-59
2022/04/08 00:11:31;;;;;;;24.20;8.50;;;;;;;9.75;100.00;95470.19;5006581;28;20049;-64
2022/04/08 00:13:58;;;;;;;39.33;11.20;;;;;;;9.94;100.00;95523.00;5006729;28;20437;-58
2022/04/08 00:16:24;;;;;;;32.50;10.73;;;;;;;9.88;100.00;95524.59;5006697;28;20045;-64
2022/04/08 00:18:51;;;;;;;16.55;8.35;;;;;;;9.90;100.00;95505.63;5006389;28;20111;-65
2022/04/08 00:21:18;;;;;;;14.40;7.65;;;;;;;9.93;100.00;95504.84;5006452;28;20058;-56
2022/04/08 00:23:45;;;;;;;16.33;8.25;;;;;;;9.83;100.00;95508.44;5007194;28;20054;-59
2022/04/08 00:26:12;;;;;;;14.18;7.38;;;;;;;9.72;100.00;95504.94;5026008;28;20096;-59
2022/04/08 00:28:38;;;;;;;12.77;6.70;;;;;;;9.79;100.00;95509.66;5026402;28;20056;-57
2022/04/08 00:31:05;;;;;;;9.90;6.30;;;;;;;9.56;100.00;95446.59;5025912;28;20133;-57
2022/04/08 00:33:32;;;;;;;15.68;5.93;;;;;;;9.67;100.00;95496.28;5025168;28;20051;-56
2022/04/08 00:36:00;;;;;;;10.27;6.28;;;;;;;9.37;100.00;95447.06;5025988;28;20492;-57
2022/04/08 00:38:27;;;;;;;17.60;7.00;;;;;;;9.51;100.00;95507.81;5026675;28;20072;-59
2022/04/08 00:40:54;;;;;;;17.20;7.50;;;;;;;9.37;100.00;95471.94;5026388;28;20053;-58
2022/04/08 00:43:41;;;;;;;19.67;8.13;;;;;;;6.31;100.00;95030.63;5026222;28;20141;-61
2022/04/08 00:46:09;;;;;;;27.65;8.93;;;;;;;9.54;100.00;95515.28;5024345;28;20127;-60
2022/04/08 00:48:39;;;;;;;16.38;7.38;;;;;;;9.60;100.00;95513.69;5026475;28;20053;-57
2022/04/08 00:51:08;;;;;;;18.80;7.72;;;;;;;9.13;100.00;95417.56;5026649;28;20057;-58
2022/04/08 00:53:36;;;;;;;15.00;6.43;;;;;;;9.46;100.00;95524.00;5024738;28;20045;-58
2022/04/08 00:56:03;;;;;;;17.50;7.97;;;;;;;9.56;100.00;95507.41;5026090;28;20061;-66
2022/04/08 00:58:31;;;;;;;19.33;6.95;;;;;;;9.65;100.00;95516.03;5026293;28;20053;-65
2022/04/08 01:00:58;;;;;;;14.50;7.45;;;;;;;9.62;100.00;95533.44;5025765;28;20064;-58
2022/04/08 01:03:25;;;;;;;14.38;7.00;;;;;;;9.47;100.00;95476.63;5024227;28;20050;-56
2022/04/08 01:05:52;;;;;;;15.73;7.43;;;;;;;9.59;100.00;95517.66;5025352;28;20060;-65
2022/04/08 01:08:19;;;;;;;12.23;6.43;;;;;;;9.35;100.00;95451.41;5026125;28;20097;-64
2022/04/08 01:10:47;;;;;;;14.73;6.18;;;;;;;9.83;100.00;95538.09;5025372;28;20049;-58
2022/04/08 01:13:13;;;;;;;12.63;6.50;;;;;;;9.85;100.00;95530.16;5025395;28;20528;-59
2022/04/08 01:15:40;;;;;;;15.68;7.20;;;;;;;9.18;100.00;95414.38;5013467;28;20574;-58
2022/04/08 01:18:07;;;;;;;15.27;7.20;;;;;;;9.88;100.00;95436.13;5023997;28;20053;-56
2022/04/08 01:20:34;;;;;;;15.02;7.57;;;;;;;10.10;100.00;95534.41;5025698;28;20060;-55
2022/04/08 01:23:01;;;;;;;11.95;6.43;;;;;;;10.09;100.00;95535.59;5024195;28;20056;-56
2022/04/08 01:25:28;;;;;;;10.73;6.45;;;;;;;9.86;100.00;95488.28;5020190;28;20066;-56
2022/04/08 01:27:55;;;;;;;13.27;6.85;;;;;;;10.18;100.00;95524.88;5006152;28;20060;-65
2022/04/08 01:30:21;;;;;;;32.65;9.05;;;;;;;9.98;100.00;95529.31;5005247;28;20050;-59
2022/04/08 01:32:48;;;;;;;33.08;10.68;;;;;;;9.78;100.00;95511.63;5004133;28;20049;-56
2022/04/08 01:35:15;;;;;;;37.55;10.82;;;;;;;10.06;100.00;95544.69;5003950;28;20053;-65
2022/04/08 01:37:42;;;;;;;12.75;6.88;;;;;;;9.78;100.00;95495.06;5003839;28;20061;-63
2022/04/08 01:40:09;;;;;;;18.75;8.02;;;;;;;10.05;100.00;95518.19;5004827;28;20296;-55
2022/04/08 01:42:36;;;;;;;15.77;6.65;;;;;;;9.98;100.00;95518.25;5005513;28;20057;-64
2022/04/08 01:45:03;;;;;;;12.75;7.45;;;;;;;10.12;100.00;95528.47;5003835;28;20054;-56
2022/04/08 01:47:30;;;;;;;11.73;6.90;;;;;;;10.21;100.00;95537.13;5003962;28;20046;-66
2022/04/08 01:49:56;;;;;;;12.57;7.22;;;;;;;10.21;91.80;95438.28;5005041;28;20053;-65
2022/04/08 01:52:23;;;;;;;9.98;6.57;;;;;;;10.76;86.53;95513.00;5005208;28;20057;-58
2022/04/08 01:54:50;;;;;;;16.63;7.57;;;;;;;10.80;93.17;95535.09;5005224;28;20050;-65
2022/04/08 01:57:18;;;;;;;14.15;7.45;;;;;;;10.78;94.62;95520.88;5003856;28;20050;-58
2022/04/08 01:59:45;;;;;;;14.23;7.75;;;;;;;10.83;89.23;95545.38;5003929;28;20068;-66
2022/04/08 02:02:11;;;;;;;12.75;7.38;;;;;;;11.26;78.08;95527.94;5005322;28;20127;-66
2022/04/08 02:04:38;;;;;;;11.50;8.32;;;;;;;11.18;77.88;95489.63;5004961;28;20096;-66
2022/04/08 02:07:06;;;;;;;11.43;7.95;;;;;;;11.62;77.95;95526.34;5003786;28;20104;-66
2022/04/08 02:09:33;;;;;;;19.13;15.93;;;;;;;11.35;76.35;95499.75;5010060;28;20107;-58
2022/04/08 02:12:00;;;;;;;10.55;8.13;;;;;;;11.88;73.56;95541.53;5004928;28;20046;-66
2022/04/08 02:14:27;;;;;;;18.50;7.30;;;;;;;11.70;77.17;95554.81;5005086;28;20053;-65
2022/04/08 02:16:54;;;;;;;22.45;9.00;;;;;;;11.61;79.85;95540.66;5004275;28;20492;-60
2022/04/08 02:19:20;;;;;;;11.00;7.28;;;;;;;11.60;78.33;95536.31;5004678;28;20054;-65
2022/04/08 02:21:48;;;;;;;20.63;8.90;;;;;;;11.60;79.38;95550.94;5004572;28;20061;-65
2022/04/08 02:24:16;;;;;;;75.47;35.75;;;;;;;9.53;77.56;95193.09;5004840;28;20046;-66
2022/04/08 02:26:43;;;;;;;19.92;10.93;;;;;;;11.80;74.29;95542.81;5019412;28;20049;-65
2022/04/08 02:29:10;;;;;;;9.82;6.30;;;;;;;11.78;75.74;95534.13;5004262;28;20050;-65
2022/04/08 02:31:38;;;;;;;7.72;6.25;;;;;;;11.30;75.22;95469.72;5003528;28;20516;-65
2022/04/08 02:34:05;;;;;;;12.38;7.20;;;;;;;11.54;69.91;95485.28;5004374;28;20057;-58
2022/04/08 02:36:32;;;;;;;144.73;64.78;;;;;;;12.28;69.10;95554.50;5004476;28;20137;-65
2022/04/08 02:38:58;;;;;;;43.25;22.67;;;;;;;12.13;69.22;95505.94;5004129;28;20057;-65
2022/04/08 02:41:26;;;;;;;11.27;8.13;;;;;;;11.96;68.92;95463.38;5004256;28;20424;-65
2022/04/08 02:43:53;;;;;;;9.40;6.03;;;;;;;12.66;65.10;95528.13;5002669;28;20056;-65
2022/04/08 02:46:19;;;;;;;58.67;24.67;;;;;;;12.57;68.46;95508.44;5002733;28;20057;-58
2022/04/08 02:48:46;;;;;;;25.38;11.70;;;;;;;12.52;67.97;95547.81;5004477;28;20065;-65
2022/04/08 02:51:13;;;;;;;7.28;5.80;;;;;;;12.77;61.25;95528.00;5002914;28;20061;-64
2022/04/08 02:53:39;;;;;;;9.75;5.95;;;;;;;13.15;59.12;95530.13;5003033;28;20058;-61
2022/04/08 02:56:06;;;;;;;6.30;5.68;;;;;;;13.35;57.43;95547.69;5003902;28;20054;-65
2022/04/08 02:58:33;;;;;;;14.63;6.15;;;;;;;13.55;55.55;95534.59;5004221;28;20061;-59
2022/04/08 03:00:59;;;;;;;7.43;6.40;;;;;;;13.67;55.86;95547.84;5003863;28;20057;-58
2022/04/08 03:03:27;;;;;;;6.78;5.53;;;;;;;13.62;52.92;95495.47;5004329;28;20062;-65
2022/04/08 03:05:54;;;;;;;6.57;5.35;;;;;;;13.93;54.43;95559.28;5004630;28;20057;-56
2022/04/08 03:08:21;;;;;;;8.23;6.00;;;;;;;14.01;53.66;95532.88;5004447;28;20480;-64
2022/04/08 03:10:49;;;;;;;5.47;4.80;;;;;;;13.86;55.45;95559.44;5003936;28;20073;-57
2022/04/08 03:13:15;;;;;;;6.07;5.00;;;;;;;13.59;54.61;95526.94;5003822;28;20405;-57
2022/04/08 03:15:42;;;;;;;7.80;4.55;;;;;;;13.92;53.98;95541.03;5003559;28;20058;-65
2022/04/08 03:18:09;;;;;;;9.05;5.38;;;;;;;13.81;54.90;95557.94;5002588;28;20081;-65
2022/04/08 03:20:36;;;;;;;5.70;4.65;;;;;;;13.78;54.53;95546.88;5003580;28;20046;-58
2022/04/08 03:23:02;;;;;;;8.93;5.07;;;;;;;13.64;55.07;95565.41;5004137;28;20052;-65
2022/04/08 03:25:29;;;;;;;7.10;5.40;;;;;;;13.81;53.39;95557.16;5003999;28;20571;-57
2022/04/08 03:27:56;;;;;;;5.93;4.10;;;;;;;13.84;54.13;95545.16;5002445;28;20078;-58
2022/04/08 03:30:24;;;;;;;7.05;4.93;;;;;;;13.09;54.04;95473.47;5003577;28;20940;-57
2022/04/08 03:32:50;;;;;;;5.20;4.28;;;;;;;13.75;54.40;95565.22;5002329;28;20116;-57
2022/04/08 03:35:17;;;;;;;5.50;4.55;;;;;;;13.73;54.17;95572.41;5003482;28;20062;-65
2022/04/08 03:37:44;;;;;;;6.32;4.55;;;;;;;13.72;53.78;95584.75;5002629;28;20574;-64
2022/04/08 03:40:11;;;;;;;7.80;3.92;;;;;;;13.71;53.72;95564.50;5003097;28;20057;-65
2022/04/08 03:42:38;;;;;;;3.75;3.42;;;;;;;13.44;52.64;95516.50;5005807;28;20487;-65
2022/04/08 03:45:06;;;;;;;7.03;5.03;;;;;;;13.96;52.19;95572.38;5007559;28;20065;-64
2022/04/08 03:47:32;;;;;;;4.65;4.13;;;;;;;14.02;51.77;95567.88;5006322;28;20058;-65
2022/04/08 03:49:59;;;;;;;4.40;3.97;;;;;;;14.11;49.61;95565.28;5006097;28;20429;-65
2022/04/08 03:52:29;;;;;;;5.00;3.80;;;;;;;13.92;48.82;95541.81;5007693;28;20057;-65
2022/04/08 03:54:56;;;;;;;8.05;5.10;;;;;;;14.36;49.38;95577.53;5005859;28;20050;-58
2022/04/08 03:57:23;;;;;;;4.35;3.75;;;;;;;13.60;50.51;95478.44;5007483;28;20061;-64
2022/04/08 03:59:49;;;;;;;5.75;3.97;;;;;;;14.29;49.03;95576.88;5005395;28;20424;-58
2022/04/08 04:02:16;;;;;;;4.38;3.90;;;;;;;14.32;50.02;95587.16;5006729;28;20153;-58
2022/04/08 04:04:43;;;;;;;5.03;3.75;;;;;;;14.41;47.08;95596.53;5007184;28;20587;-65
2022/04/08 04:07:10;;;;;;;5.18;3.78;;;;;;;14.54;47.53;95582.72;5007206;28;20080;-59
2022/04/08 04:09:37;;;;;;;5.72;3.53;;;;;;;14.53;47.68;95595.06;5006860;28;20054;-57
2022/04/08 04:12:04;;;;;;;6.03;3.95;;;;;;;14.57;48.17;95604.13;5007135;28;20058;-58
2022/04/08 04:14:30;;;;;;;4.93;3.45;;;;;;;14.23;47.65;95556.28;5007265;28;20046;-58
2022/04/08 04:16:57;;;;;;;3.55;3.20;;;;;;;14.62;47.64;95609.22;5007293;28;20492;-57
2022/04/08 04:19:24;;;;;;;4.25;3.28;;;;;;;14.67;47.73;95608.69;5006798;28;20056;-64
2022/04/08 04:21:51;;;;;;;4.00;3.30;;;;;;;14.79;46.28;95602.44;5007007;28;20061;-64
2022/04/08 04:24:18;;;;;;;4.38;3.13;;;;;;;14.90;46.40;95617.72;5006937;28;20050;-57
2022/04/08 04:26:45;;;;;;;3.83;3.38;;;;;;;14.80;46.89;95610.38;5006427;28;20465;-64
2022/04/08 04:29:12;;;;;;;4.50;3.42;;;;;;;14.37;46.68;95545.66;5007035;28;20045;-57
2022/04/08 04:31:39;;;;;;;3.90;3.25;;;;;;;14.77;47.88;95629.97;5006302;28;20099;-65
2022/04/08 04:34:06;;;;;;;4.78;3.65;;;;;;;14.75;48.44;95632.38;5006917;28;20053;-60
2022/04/08 04:36:33;;;;;;;5.32;3.67;;;;;;;14.78;48.17;95625.94;5006818;28;20057;-65
2022/04/08 04:38:59;;;;;;;4.97;3.65;;;;;;;14.81;47.25;95625.13;5006771;28;20064;-62
2022/04/08 04:41:26;;;;;;;3.75;3.13;;;;;;;14.88;46.86;95636.09;5006476;28;20057;-57
2022/04/08 04:43:52;;;;;;;7.18;3.60;;;;;;;14.84;46.88;95635.41;5006278;28;20052;-60
2022/04/08 04:46:24;;;;;;;3.90;3.20;;;;;;;14.63;46.76;95580.13;5006072;28;20087;-59
2022/04/08 04:48:50;;;;;;;3.65;3.35;;;;;;;15.11;46.57;95647.13;5025953;28;20042;-65
2022/04/08 04:51:17;;;;;;;8.45;3.60;;;;;;;15.18;46.50;95666.47;5024452;28;20045;-58
2022/04/08 04:53:44;;;;;;;4.30;3.35;;;;;;;15.28;46.04;95662.66;5025082;28;20060;-65
2022/04/08 04:56:10;;;;;;;3.50;3.20;;;;;;;14.87;43.90;95584.34;5025968;28;20049;-58
2022/04/08 04:58:37;;;;;;;4.47;3.63;;;;;;;15.54;44.38;95683.97;5026549;28;20057;-58
2022/04/08 05:01:04;;;;;;;3.85;3.20;;;;;;;15.51;45.83;95679.28;5023800;28;20061;-57
2022/04/08 05:03:35;;;;;;;3.05;2.85;;;;;;;14.62;45.98;95584.13;5025207;28;20049;-65
2022/04/08 05:06:02;;;;;;;3.75;3.45;;;;;;;15.42;46.16;95698.63;5025680;28;20076;-57
2022/04/08 05:08:29;;;;;;;3.83;3.08;;;;;;;15.46;46.58;95693.75;5025704;28;20053;-65
2022/04/08 05:10:56;;;;;;;3.90;3.30;;;;;;;15.42;45.34;95704.22;5025820;28;20514;-63
2022/04/08 05:13:22;;;;;;;4.00;3.13;;;;;;;14.51;45.30;95552.94;5025123;28;20061;-58
2022/04/08 05:15:55;;;;;;;3.17;2.88;;;;;;;15.58;45.55;95723.78;5025547;28;20076;-65
2022/04/08 05:18:22;;;;;;;4.47;3.80;;;;;;;15.65;45.35;95698.47;5026241;28;20053;-58
2022/04/08 05:20:52;;;;;;;4.25;3.67;;;;;;;15.77;45.85;95708.97;5024288;28;20571;-65
2022/04/08 05:23:19;;;;;;;4.32;3.55;;;;;;;15.63;47.04;95692.56;5025802;28;20057;-65
2022/04/08 05:25:46;;;;;;;9.25;6.25;;;;;;;15.80;48.00;95730.41;5012567;28;20058;-57
2022/04/08 05:28:15;;;;;;;6.35;4.63;;;;;;;15.63;48.31;95730.84;5004044;28;20049;-64
2022/04/08 05:30:43;;;;;;;7.50;5.50;;;;;;;15.63;49.40;95731.63;5005197;28;20061;-65
2022/04/08 05:33:14;;;;;;;9.27;6.32;;;;;;;15.66;48.30;95736.34;5005393;28;20100;-64
2022/04/08 05:35:41;;;;;;;7.32;4.53;;;;;;;15.35;46.48;95673.66;5005816;28;20447;-58
2022/04/08 05:38:08;;;;;;;5.13;4.13;;;;;;;15.56;45.80;95681.56;5005299;28;20471;-64
2022/04/08 05:40:35;;;;;;;3.08;2.88;;;;;;;16.07;45.64;95739.31;5005500;28;20068;-65
2022/04/08 05:43:02;;;;;;;4.25;3.85;;;;;;;15.66;45.37;95674.13;5005393;28;20061;-57
2022/04/08 05:45:28;;;;;;;5.85;4.20;;;;;;;15.80;46.22;95713.66;5004407;28;20364;-57
2022/04/08 05:47:55;;;;;;;4.68;3.88;;;;;;;15.92;47.87;95748.47;5004838;28;20444;-63
2022/04/08 05:50:22;;;;;;;5.32;4.20;;;;;;;15.94;47.13;95746.81;5004863;28;20057;-65
2022/04/08 05:52:51;;;;;;;4.70;3.92;;;;;;;15.99;47.04;95768.66;5004778;28;20060;-66
2022/04/08 05:55:18;;;;;;;3.53;3.30;;;;;;;14.51;46.28;95516.72;5003499;28;20069;-60
2022/04/08 05:57:46;;;;;;;5.25;3.83;;;;;;;16.16;46.42;95759.03;5004318;28;20037;-57
2022/04/08 06:00:14;;;;;;;6.28;4.45;;;;;;;16.26;46.21;95769.16;5013595;28;20053;-57
2022/04/08 06:02:47;;;;;;;7.97;4.53;;;;;;;16.17;46.03;95768.97;5009740;28;20050;-67
2022/04/08 06:05:20;;;;;;;4.78;3.75;;;;;;;16.51;45.55;95786.09;5006930;28;20081;-56
2022/04/08 06:07:54;;;;;;;7.68;4.93;;;;;;;16.57;45.51;95800.31;5013267;28;20053;-64
2022/04/08 06:10:23;;;;;;;6.88;3.83;;;;;;;16.68;45.30;95816.84;5014423;28;20469;-71
2022/04/08 06:12:51;;;;;;;4.55;4.05;;;;;;;16.75;45.18;95823.03;5003823;28;20061;-59
2022/04/08 06:15:19;;;;;;;3.15;2.95;;;;;;;16.63;44.65;95827.31;5011075;28;20046;-69
2022/04/08 06:17:46;;;;;;;6.22;3.78;;;;;;;16.17;44.72;95721.47;5017223;28;20055;-65
2022/04/08 06:20:17;;;;;;;4.28;3.97;;;;;;;16.85;45.01;95804.38;5024015;28;20069;-59
2022/04/08 06:22:46;;;;;;;7.18;3.92;;;;;;;16.82;45.09;95802.47;5023203;28;20057;-70
2022/04/08 06:25:16;;;;;;;3.53;3.22;;;;;;;16.94;43.99;95818.50;5015722;28;20049;-70
2022/04/08 06:27:46;;;;;;;4.93;3.45;;;;;;;16.95;44.37;95825.66;5014360;28;20061;-66
2022/04/08 06:30:15;;;;;;;3.38;3.08;;;;;;;16.96;44.32;95827.25;5011845;28;20042;-58
2022/04/08 06:32:44;;;;;;;4.40;3.55;;;;;;;16.48;44.13;95759.03;5006677;28;20397;-66
2022/04/08 06:35:12;;;;;;;3.50;3.20;;;;;;;16.83;44.35;95784.44;5011577;28;20388;-56
2022/04/08 06:37:39;;;;;;;3.75;3.30;;;;;;;17.28;44.03;95815.94;5005603;28;20054;-67
2022/04/08 06:40:10;;;;;;;7.25;4.05;;;;;;;16.80;43.63;95729.41;5019558;28;20053;-57
2022/04/08 06:42:38;;;;;;;3.20;2.88;;;;;;;17.33;42.73;95818.97;5011518;28;20065;-57
2022/04/08 06:45:06;;;;;;;3.70;3.40;;;;;;;17.41;43.28;95830.75;5014539;28;20050;-68
2022/04/08 06:47:48;;;;;;;4.15;3.72;;;;;;;17.57;43.32;95833.50;5014420;28;20053;-57
2022/04/08 06:50:16;;;;;;;4.28;3.78;;;;;;;17.23;41.99;95774.53;5015080;28;20133;-64
2022/04/08 06:52:43;;;;;;;3.70;3.40;;;;;;;17.83;41.79;95840.75;5009081;28;20812;-64
2022/04/08 06:55:11;;;;;;;3.78;3.47;;;;;;;17.32;41.35;95763.44;5003207;28;20520;-62
2022/04/08 06:57:38;;;;;;;3.47;3.17;;;;;;;17.79;41.75;95828.84;5016792;28;20052;-64
2022/04/08 07:00:07;;;;;;;4.03;3.72;;;;;;;18.12;41.45;95869.44;5020311;28;20396;-66
2022/04/08 07:02:33;;;;;;;4.10;3.45;;;;;;;18.25;41.46;95867.44;5021570;28;20107;-55
2022/04/08 07:05:00;;;;;;;4.95;3.67;;;;;;;16.12;41.48;95568.34;5018796;28;20057;-56
2022/04/08 07:07:31;;;;;;;4.00;3.70;;;;;;;18.36;41.49;95884.69;5017365;28;20061;-69
2022/04/08 07:09:58;;;;;;;4.15;3.85;;;;;;;18.30;41.78;95880.88;5016083;28;20049;-68
2022/04/08 07:12:26;;;;;;;4.03;3.63;;;;;;;18.26;41.42;95874.59;5020336;28;20053;-64
2022/04/08 07:14:53;;;;;;;3.67;3.33;;;;;;;18.39;40.57;95880.22;5014034;28;20492;-63
2022/04/08 07:17:28;;;;;;;5.05;3.40;;;;;;;18.42;40.94;95885.72;5003318;28;20072;-70
2022/04/08 07:20:14;;;;;;;4.22;3.30;;;;;;;18.13;40.82;95836.59;5003967;28;20058;-67
2022/04/08 07:22:42;;;;;;;3.50;3.20;;;;;;;18.34;40.04;95859.13;5007025;28;20052;-56
2022/04/08 07:25:10;;;;;;;3.25;3.05;;;;;;;18.78;40.43;95899.41;5008667;28;20566;-56
2022/04/08 07:27:44;;;;;;;3.80;3.50;;;;;;;18.82;40.49;95906.44;5002697;28;20054;-64
2022/04/08 07:30:12;;;;;;;8.00;4.05;;;;;;;19.00;39.21;95901.00;5012670;28;20055;-55
2022/04/08 07:32:39;;;;;;;6.07;4.75;;;;;;;18.97;39.51;95899.09;5003351;28;20050;-62
2022/04/08 07:35:07;;;;;;;4.32;4.03;;;;;;;19.01;38.58;95879.34;5001988;28;20073;-55
2022/04/08 07:37:34;;;;;;;6.15;5.55;;;;;;;19.15;38.37;95899.31;5002975;28;20050;-62
2022/04/08 07:40:08;;;;;;;8.15;7.35;;;;;;;18.69;38.23;95795.47;5002615;28;20057;-62
2022/04/08 07:42:35;;;;;;;6.65;4.68;;;;;;;19.62;37.73;95895.66;5005379;28;20057;-56
2022/04/08 07:45:04;;;;;;;7.03;5.90;;;;;;;19.71;37.70;95912.59;5016052;28;20531;-66
2022/04/08 07:47:31;;;;;;;8.20;5.20;;;;;;;19.10;37.64;95860.56;5021552;28;20060;-55
2022/04/08 07:50:03;;;;;;;3.85;3.65;;;;;;;19.35;37.07;95885.78;5011865;28;20054;-56
2022/04/08 07:52:30;;;;;;;7.05;3.58;;;;;;;19.55;37.62;95913.56;5006194;28;20054;-56
2022/04/08 07:54:57;;;;;;;6.70;3.30;;;;;;;19.41;36.97;95889.56;5002739;28;20072;-57
2022/04/08 07:57:24;;;;;;;3.55;3.00;;;;;;;19.58;36.90;95924.66;5006980;28;20049;-66
2022/04/08 07:59:51;;;;;;;3.22;2.92;;;;;;;19.21;36.16;95846.94;5009430;28;20064;-67
2022/04/08 08:02:18;;;;;;;3.90;3.47;;;;;;;19.82;36.84;95933.44;5008860;28;20175;-68
2022/04/08 08:04:49;;;;;;;3.80;3.50;;;;;;;19.98;36.46;95924.03;5012661;28;20049;-68
2022/04/08 08:07:16;;;;;;;3.38;3.15;;;;;;;19.95;35.15;95942.56;5008356;28;20132;-67
2022/04/08 08:09:43;;;;;;;3.30;2.97;;;;;;;20.21;34.89;95943.25;5003043;28;20053;-68
2022/04/08 08:12:25;;;;;;;3.55;3.25;;;;;;;20.36;34.88;95944.28;5005840;28;20050;-67
2022/04/08 08:14:52;;;;;;;4.07;3.45;;;;;;;20.37;34.76;95948.66;5017055;28;20517;-60
2022/04/08 08:17:20;;;;;;;3.10;2.90;;;;;;;20.34;33.78;95958.81;5010719;28;20167;-54
2022/04/08 08:19:46;;;;;;;3.15;2.95;;;;;;;20.35;34.62;95948.31;5016286;28;20045;-70
2022/04/08 08:22:13;;;;;;;3.83;3.20;;;;;;;20.32;33.95;95932.38;5010273;28;20061;-63
2022/04/08 08:24:40;;;;;;;4.68;3.50;;;;;;;20.07;34.22;95910.81;5006699;28;20081;-66
2022/04/08 08:27:06;;;;;;;6.13;4.18;;;;;;;19.70;34.35;95863.22;5016102;28;20480;-68
2022/04/08 08:29:33;;;;;;;4.00;3.60;;;;;;;20.54;33.85;95961.22;5018126;28;20041;-58
2022/04/08 08:32:00;;;;;;;3.80;3.47;;;;;;;20.72;34.10;95956.47;5018060;28;20057;-65
2022/04/08 08:34:27;;;;;;;3.90;3.60;;;;;;;20.60;33.36;95925.59;5014214;28;20041;-59
2022/04/08 08:36:59;;;;;;;3.40;3.20;;;;;;;20.31;33.56;95875.31;5008943;28;20489;-55
2022/04/08 08:39:27;;;;;;;3.60;3.30;;;;;;;20.56;32.90;95942.66;5011415;28;20073;-63
2022/04/08 08:41:55;;;;;;;3.38;3.22;;;;;;;20.78;32.73;95936.94;5020287;28;20490;-58
2022/04/08 08:44:22;;;;;;;3.33;3.13;;;;;;;20.98;34.12;95955.03;5016407;28;20157;-55
2022/04/08 08:46:49;;;;;;;3.63;3.33;;;;;;;21.07;33.87;95954.25;5010730;28;20053;-55
2022/04/08 08:49:19;;;;;;;3.45;3.20;;;;;;;20.83;32.00;95944.78;5025578;28;20064;-67
2022/04/08 08:51:55;;;;;;;3.03;2.80;;;;;;;20.91;32.03;95951.69;5020612;28;20049;-59
2022/04/08 08:54:22;;;;;;;3.17;2.92;;;;;;;21.05;32.38;95945.50;5025335;28;20053;-58
2022/04/08 08:56:49;;;;;;;3.35;3.15;;;;;;;21.00;32.05;95965.84;5014902;28;20451;-55
2022/04/08 08:59:16;;;;;;;3.75;2.95;;;;;;;20.60;31.87;95894.66;5023713;28;20085;-69
2022/04/08 09:01:48;;;;;;;3.53;3.28;;;;;;;18.42;32.21;95535.22;5010806;28;20057;-69
2022/04/08 09:04:15;;;;;;;3.63;3.33;;;;;;;21.09;31.74;95946.13;5013842;28;20068;-66
2022/04/08 09:06:42;;;;;;;9.27;3.40;;;;;;;21.24;31.38;95952.75;5019626;28;20058;-56
2022/04/08 09:09:11;;;;;;;4.00;3.55;;;;;;;21.27;31.13;95962.28;5007214;28;20516;-66
2022/04/08 09:11:38;;;;;;;3.55;3.35;;;;;;;20.82;31.26;95898.97;5006254;28;21125;-69
2022/04/08 09:14:05;;;;;;;3.38;3.17;;;;;;;21.10;31.72;95987.16;5004191;28;20343;-70
2022/04/08 09:16:38;;;;;;;3.67;3.47;;;;;;;20.62;32.21;95897.81;5005387;28;20072;-70
2022/04/08 09:19:12;;;;;;;3.42;3.13;;;;;;;21.26;31.84;95969.97;5020723;28;20265;-57
2022/04/08 09:21:51;;;;;;;5.45;4.50;;;;;;;21.24;31.56;95975.28;5005482;28;20050;-57
2022/04/08 09:24:22;;;;;;;4.10;3.80;;;;;;;21.38;31.28;95985.16;5005758;28;20061;-57
2022/04/08 09:26:52;;;;;;;3.63;3.40;;;;;;;21.08;31.07;95969.94;5010395;28;20053;-59
2022/04/08 09:29:20;;;;;;;3.65;3.45;;;;;;;21.19;31.79;95990.00;5025029;28;20447;-57
2022/04/08 09:31:55;;;;;;;11.32;5.10;;;;;;;21.23;31.96;95987.03;5024606;28;20060;-60
2022/04/08 09:34:22;;;;;;;3.53;3.33;;;;;;;21.11;32.21;95942.84;5024903;28;20339;-60
2022/04/08 09:36:49;;;;;;;3.35;3.15;;;;;;;21.09;31.83;95923.59;5024188;28;20260;-58
2022/04/08 09:39:16;;;;;;;3.90;3.47;;;;;;;21.35;32.27;95958.72;5023032;28;20470;-68
2022/04/08 09:41:46;;;;;;;3.65;3.38;;;;;;;21.63;30.20;95988.50;5024685;28;20148;-67
2022/04/08 09:44:14;;;;;;;3.50;3.30;;;;;;;21.77;30.43;95985.09;5024953;28;20061;-68
2022/04/08 09:46:42;;;;;;;3.83;3.63;;;;;;;21.98;30.66;95989.81;5024167;28;20521;-57
2022/04/08 09:49:08;;;;;;;3.80;3.50;;;;;;;22.14;29.16;95991.53;5023216;28;20054;-71
2022/04/08 09:51:38;;;;;;;3.90;3.70;;;;;;;21.86;30.74;95959.72;5011727;28;20358;-68
2022/04/08 09:54:19;;;;;;;4.22;3.92;;;;;;;21.91;31.35;95995.75;5004791;28;20136;-68
2022/04/08 09:56:46;;;;;;;3.88;3.58;;;;;;;21.72;31.81;95982.88;5003996;28;20061;-60
2022/04/08 09:59:27;;;;;;;3.97;3.67;;;;;;;21.99;30.39;95988.53;5004557;28;20058;-68
2022/04/08 10:02:16;;;;;;;4.20;3.80;;;;;;;21.85;31.04;95986.34;5003098;28;20159;-68
2022/04/08 10:04:47;;;;;;;4.22;3.83;;;;;;;21.47;31.65;95943.69;5004657;28;20461;-68
2022/04/08 10:07:13;;;;;;;4.50;4.10;;;;;;;22.09;31.22;95995.75;5004381;28;20049;-67
2022/04/08 10:10:12;;;;;;;4.25;3.95;;;;;;;22.11;31.51;95986.81;5003332;28;20050;-68
2022/04/08 10:13:09;;;;;;;4.97;4.40;;;;;;;22.44;31.55;95994.16;5005552;28;20061;-57
2022/04/08 10:15:51;;;;;;;4.13;3.83;;;;;;;22.41;31.56;95997.91;5004198;28;20547;-57
2022/04/08 10:18:18;;;;;;;4.60;4.30;;;;;;;21.94;31.76;95913.03;5004448;28;20887;-57
2022/04/08 10:20:45;;;;;;;4.10;3.80;;;;;;;22.60;30.73;96006.38;5007308;28;20046;-57
2022/04/08 10:23:16;;;;;;;4.25;3.95;;;;;;;22.70;30.70;96010.75;5004488;28;20046;-57
2022/04/08 10:25:50;;;;;;;4.25;4.00;;;;;;;22.48;30.69;95967.78;5002837;28;20524;-57
2022/04/08 10:28:19;;;;;;;4.68;4.18;;;;;;;22.80;30.16;95998.94;5020989;28;20136;-67
2022/04/08 10:30:48;;;;;;;4.28;3.97;;;;;;;22.72;30.38;95979.97;5023495;28;20049;-57
2022/04/08 10:33:26;;;;;;;4.43;4.18;;;;;;;22.71;30.13;95984.84;5022551;28;20404;-68
2022/04/08 10:36:00;;;;;;;4.47;4.15;;;;;;;22.98;30.59;95993.22;5023235;28;20049;-67
2022/04/08 10:38:37;;;;;;;4.20;3.90;;;;;;;22.95;30.49;95993.41;5024155;28;20053;-60
2022/04/08 10:41:10;;;;;;;4.90;4.53;;;;;;;23.08;30.00;95979.84;5022650;28;20056;-68
2022/04/08 10:43:45;;;;;;;4.60;4.20;;;;;;;22.67;29.69;95946.75;5018928;28;20152;-55
2022/04/08 10:46:12;;;;;;;4.28;4.00;;;;;;;22.82;30.68;95989.97;5012516;28;20058;-63
2022/04/08 10:48:39;;;;;;;4.63;4.32;;;;;;;22.92;30.20;95988.69;5012601;28;20435;-64
2022/04/08 10:51:11;;;;;;;5.07;4.68;;;;;;;22.98;29.41;95992.44;5014407;28;20045;-58
2022/04/08 10:53:42;;;;;;;4.80;4.25;;;;;;;23.13;30.10;95982.78;5004648;28;20506;-70
2022/04/08 10:56:14;;;;;;;5.13;4.45;;;;;;;23.44;29.39;95985.34;5004608;28;20124;-60
2022/04/08 10:58:47;;;;;;;6.22;5.70;;;;;;;23.45;29.82;95986.88;5008601;28;20058;-59
2022/04/08 11:01:24;;;;;;;4.18;3.90;;;;;;;23.26;30.07;95991.88;5003361;28;20058;-58
2022/04/08 11:04:02;;;;;;;4.65;4.28;;;;;;;23.29;29.25;95984.47;5008571;28;20467;-69
2022/04/08 11:06:33;;;;;;;4.65;4.00;;;;;;;23.26;29.76;95988.25;5011292;28;20049;-58
2022/04/08 11:09:11;;;;;;;4.68;4.30;;;;;;;23.24;29.88;96000.00;5019469;28;20054;-69
2022/04/08 11:11:41;;;;;;;4.50;4.15;;;;;;;21.68;30.06;95772.88;5007022;28;20427;-66
2022/04/08 11:14:09;;;;;;;4.88;4.40;;;;;;;23.07;29.81;95972.63;5014889;28;20049;-62
2022/04/08 11:16:40;;;;;;;4.53;4.30;;;;;;;23.25;29.80;95995.94;5003155;28;20076;-57
2022/04/08 11:19:08;;;;;;;4.68;4.15;;;;;;;23.34;29.76;95997.94;5016001;28;20046;-59
2022/04/08 11:21:38;;;;;;;4.80;4.38;;;;;;;23.36;30.00;96007.50;5011641;28;20065;-69
2022/04/08 11:24:08;;;;;;;4.85;4.40;;;;;;;23.63;29.31;95998.84;5018770;28;20440;-66
2022/04/08 11:26:52;;;;;;;5.95;4.20;;;;;;;24.00;30.05;96002.22;5013535;28;20513;-69
2022/04/08 11:29:24;;;;;;;5.68;4.60;;;;;;;24.13;28.95;95985.78;5016814;28;20061;-65
2022/04/08 11:31:54;;;;;;;4.60;4.30;;;;;;;24.35;28.93;95991.88;5013057;28;20057;-56
2022/04/08 11:34:27;;;;;;;4.80;4.50;;;;;;;24.33;28.63;95974.56;5015909;28;20508;-60
2022/04/08 11:36:55;;;;;;;5.10;4.65;;;;;;;24.40;29.06;95988.38;5019248;28;20170;-64
2022/04/08 11:39:22;;;;;;;5.78;5.30;;;;;;;24.49;28.64;95988.25;5008634;28;20058;-59